Marchen Maersk — OUIY2 — position and weather

sailwx.info

Track history (hours):
 
Tides and Currents Weather Stations Pressure Air Temp Water Temp Dewpoint Dewpoint Depression Visibility Wind Speed Wind Dir Waves Ship Positions

Marchen Maersk

Last reported at 2015-May-27 00:26 UTC. Time now 2015-May-27 15:51 UTC.
Position N 30°31' E 122°29'.

Length 367 m; draft 12.1 m.

Type: Ship (hazmat cat A). MMSI: 220594000.

Date/timePositionNaut miles runAvg speedWind from/ knotsBaromVisibWave heightAir tempDewpointWater temp
2015-May-27 00:26N 30°31' E 122°29'1313.2
2015-May-26 23:29N 30°29' E 122°44'1819.0
2015-May-26 22:33N 30°20' E 123°01'1716.9
2015-May-26 21:33N 30°03' E 123°05'3517.2
2015-May-26 19:32N 29°41' E 122°35'1515.3
2015-May-26 18:33N 29°45' E 122°18'1110.9
2015-May-26 17:33N 29°54' E 122°10'1312.7
2015-May-26 16:33N 29°57' E 121°56'5 4.8
2015-May-26 15:26N 29°57' E 121°50'0 0.0
2015-May-26 14:31N 29°57' E 121°50'0 0.0
2015-May-26 13:25N 29°57' E 121°50'0 0.0
2015-May-26 12:19N 29°57' E 121°50'0 0.0
2015-May-26 11:31N 29°57' E 121°50'0 0.0
2015-May-26 10:31N 29°57' E 121°50'0 0.0
2015-May-26 09:10N 29°57' E 121°50'0 0.0
2015-May-26 08:31N 29°57' E 121°50'0 0.0
2015-May-26 07:31N 29°57' E 121°50'0 0.0
2015-May-26 06:31N 29°57' E 121°50'0 0.0
2015-May-26 05:28N 29°57' E 121°50'0 0.0
2015-May-26 04:28N 29°57' E 121°50'0 0.0
2015-May-26 02:28N 29°57' E 121°50'0 0.0
2015-May-26 01:33N 29°57' E 121°50'0 0.0
2015-May-26 00:33N 29°57' E 121°50'5 5.0
2015-May-25 23:33N 29°58' E 121°56'1312.8
2015-May-25 22:34N 29°55' E 122°10'1211.9
2015-May-25 21:33N 29°45' E 122°19'4 3.4
2015-May-25 20:30N 29°42' E 122°21'0 0.1
2015-May-25 18:30N 29°42' E 122°21'0 0.1
2015-May-25 14:18N 29°42' E 122°21'2 0.8
2015-May-25 11:33N 29°41' E 122°22'1111.2
2015-May-25 10:33N 29°30' E 122°26'1211.7
2015-May-25 09:33N 29°18' E 122°28'1211.8
2015-May-25 08:33N 29°06' E 122°29'29512.6
2015-May-24 09:14N 24°53' E 119°39'3212.0
2015-May-24 06:33N 24°30' E 119°14'5618.8
2015-May-24 03:33N 23°50' E 118°31'1919.2
2015-May-24 02:33N 23°38' E 118°15'7718.6
2015-May-23 22:26N 22°58' E 117°04'1618.6
2015-May-23 21:33N 22°49' E 116°49'13217.8
2015-May-23 14:08N 22°23' E 114°29'1710.6
2015-May-23 12:33N 22°34' E 114°16'0 0.1
2015-May-23 10:08N 22°34' E 114°16'0 0.0
2015-May-23 06:14N 22°34' E 114°16'0 0.0
2015-May-23 05:26N 22°34' E 114°16'0 0.0
2015-May-23 01:30N 22°34' E 114°16'19 5.8
2015-May-22 22:09N 22°18' E 114°27'4 7.2
2015-May-22 21:33N 22°13' E 114°25'7 7.4
2015-May-22 20:32N 22°07' E 114°21'16 8.1
2015-May-22 18:33N 22°16' E 114°06'4 3.6
2015-May-22 17:33N 22°20' E 114°07'0 0.0
2015-May-22 16:28N 22°20' E 114°07'0 0.0
2015-May-22 15:34N 22°20' E 114°07'0 0.0
2015-May-22 14:27N 22°20' E 114°07'1 1.4
2015-May-22 13:33N 22°19' E 114°06'7 5.1
2015-May-22 12:08N 22°13' E 114°10'610.6
2015-May-22 11:33N 22°09' E 114°15'1211.8
2015-May-22 10:31N 21°58' E 114°22'  
2015-May-17 18:33N 01°12' E 103°53'  
Track history (hours):
 
Tides and Currents Weather Stations Pressure Air Temp Water Temp Dewpoint Dewpoint Depression Visibility Wind Speed Wind Dir Waves Ship Positions

Marchen Maersk

Last reported at 2015-May-27 00:26 UTC. Time now 2015-May-27 15:51 UTC.
Position N 30°31' E 122°29'.

Length 367 m; draft 12.1 m.

Type: Ship (hazmat cat A). MMSI: 220594000.

Date/timePositionNaut miles runAvg speedWind from/ knotsBaromVisibWave heightAir tempDewpointWater temp
2015-May-27 00:26N 30°31' E 122°29'1313.2
2015-May-26 23:29N 30°29' E 122°44'1819.0
2015-May-26 22:33N 30°20' E 123°01'1716.9
2015-May-26 21:33N 30°03' E 123°05'3517.2
2015-May-26 19:32N 29°41' E 122°35'1515.3
2015-May-26 18:33N 29°45' E 122°18'1110.9
2015-May-26 17:33N 29°54' E 122°10'1312.7
2015-May-26 16:33N 29°57' E 121°56'5 4.8
2015-May-26 15:26N 29°57' E 121°50'0 0.0
2015-May-26 14:31N 29°57' E 121°50'0 0.0
2015-May-26 13:25N 29°57' E 121°50'0 0.0
2015-May-26 12:19N 29°57' E 121°50'0 0.0
2015-May-26 11:31N 29°57' E 121°50'0 0.0
2015-May-26 10:31N 29°57' E 121°50'0 0.0
2015-May-26 09:10N 29°57' E 121°50'0 0.0
2015-May-26 08:31N 29°57' E 121°50'0 0.0
2015-May-26 07:31N 29°57' E 121°50'0 0.0
2015-May-26 06:31N 29°57' E 121°50'0 0.0
2015-May-26 05:28N 29°57' E 121°50'0 0.0
2015-May-26 04:28N 29°57' E 121°50'0 0.0
2015-May-26 02:28N 29°57' E 121°50'0 0.0
2015-May-26 01:33N 29°57' E 121°50'0 0.0
2015-May-26 00:33N 29°57' E 121°50'5 5.0
2015-May-25 23:33N 29°58' E 121°56'1312.8
2015-May-25 22:34N 29°55' E 122°10'1211.9
2015-May-25 21:33N 29°45' E 122°19'4 3.4
2015-May-25 20:30N 29°42' E 122°21'0 0.1
2015-May-25 18:30N 29°42' E 122°21'0 0.1
2015-May-25 14:18N 29°42' E 122°21'2 0.8
2015-May-25 11:33N 29°41' E 122°22'1111.2
2015-May-25 10:33N 29°30' E 122°26'1211.7
2015-May-25 09:33N 29°18' E 122°28'1211.8
2015-May-25 08:33N 29°06' E 122°29'29512.6
2015-May-24 09:14N 24°53' E 119°39'3212.0
2015-May-24 06:33N 24°30' E 119°14'5618.8
2015-May-24 03:33N 23°50' E 118°31'1919.2
2015-May-24 02:33N 23°38' E 118°15'7718.6
2015-May-23 22:26N 22°58' E 117°04'1618.6
2015-May-23 21:33N 22°49' E 116°49'13217.8
2015-May-23 14:08N 22°23' E 114°29'1710.6
2015-May-23 12:33N 22°34' E 114°16'0 0.1
2015-May-23 10:08N 22°34' E 114°16'0 0.0
2015-May-23 06:14N 22°34' E 114°16'0 0.0
2015-May-23 05:26N 22°34' E 114°16'0 0.0
2015-May-23 01:30N 22°34' E 114°16'19 5.8
2015-May-22 22:09N 22°18' E 114°27'4 7.2
2015-May-22 21:33N 22°13' E 114°25'7 7.4
2015-May-22 20:32N 22°07' E 114°21'16 8.1
2015-May-22 18:33N 22°16' E 114°06'4 3.6
2015-May-22 17:33N 22°20' E 114°07'0 0.0
2015-May-22 16:28N 22°20' E 114°07'0 0.0
2015-May-22 15:34N 22°20' E 114°07'0 0.0
2015-May-22 14:27N 22°20' E 114°07'1 1.4
2015-May-22 13:33N 22°19' E 114°06'7 5.1
2015-May-22 12:08N 22°13' E 114°10'610.6
2015-May-22 11:33N 22°09' E 114°15'1211.8
2015-May-22 10:31N 21°58' E 114°22'  
2015-May-17 18:33N 01°12' E 103°53'  

Dump ship's entire track history